sensor_id;sensor_type;location;lat;lon;timestamp;P1;durP1;ratioP1;P2;durP2;ratioP2
14235;SDS011;7202;50.718;7.072;2023-05-24T00:00:14;8.32;;;3.10;;
14235;SDS011;7202;50.718;7.072;2023-05-24T00:02:44;9.90;;;3.63;;
14235;SDS011;7202;50.718;7.072;2023-05-24T00:05:13;9.88;;;2.80;;
14235;SDS011;7202;50.718;7.072;2023-05-24T00:07:44;11.40;;;3.15;;
14235;SDS011;7202;50.718;7.072;2023-05-24T00:10:12;12.35;;;3.47;;
14235;SDS011;7202;50.718;7.072;2023-05-24T00:12:41;9.32;;;3.25;;
14235;SDS011;7202;50.718;7.072;2023-05-24T00:15:10;10.77;;;3.00;;
14235;SDS011;7202;50.718;7.072;2023-05-24T00:17:38;8.77;;;3.25;;
14235;SDS011;7202;50.718;7.072;2023-05-24T00:20:08;8.88;;;3.00;;
14235;SDS011;7202;50.718;7.072;2023-05-24T00:22:40;7.88;;;3.03;;
14235;SDS011;7202;50.718;7.072;2023-05-24T00:25:10;8.10;;;3.28;;
14235;SDS011;7202;50.718;7.072;2023-05-24T00:27:39;8.18;;;3.25;;
14235;SDS011;7202;50.718;7.072;2023-05-24T00:30:08;10.73;;;3.65;;
14235;SDS011;7202;50.718;7.072;2023-05-24T00:32:37;9.32;;;2.85;;
14235;SDS011;7202;50.718;7.072;2023-05-24T00:35:07;8.32;;;3.15;;
14235;SDS011;7202;50.718;7.072;2023-05-24T00:37:35;7.55;;;2.40;;
14235;SDS011;7202;50.718;7.072;2023-05-24T00:40:08;6.35;;;2.70;;
14235;SDS011;7202;50.718;7.072;2023-05-24T00:42:38;7.05;;;2.63;;
14235;SDS011;7202;50.718;7.072;2023-05-24T00:45:10;8.80;;;2.65;;
14235;SDS011;7202;50.718;7.072;2023-05-24T00:47:39;6.53;;;2.53;;
14235;SDS011;7202;50.718;7.072;2023-05-24T00:50:08;12.95;;;3.15;;
14235;SDS011;7202;50.718;7.072;2023-05-24T00:52:40;7.47;;;2.88;;
14235;SDS011;7202;50.718;7.072;2023-05-24T00:55:10;6.50;;;2.83;;
14235;SDS011;7202;50.718;7.072;2023-05-24T00:57:41;10.80;;;2.60;;
14235;SDS011;7202;50.718;7.072;2023-05-24T01:00:10;9.95;;;2.60;;
14235;SDS011;7202;50.718;7.072;2023-05-24T01:02:39;10.38;;;2.78;;
14235;SDS011;7202;50.718;7.072;2023-05-24T01:05:08;10.00;;;3.20;;
14235;SDS011;7202;50.718;7.072;2023-05-24T01:07:52;8.52;;;2.80;;
14235;SDS011;7202;50.718;7.072;2023-05-24T01:10:30;9.57;;;2.50;;
14235;SDS011;7202;50.718;7.072;2023-05-24T01:13:04;6.55;;;3.08;;
14235;SDS011;7202;50.718;7.072;2023-05-24T01:15:48;6.75;;;2.38;;
14235;SDS011;7202;50.718;7.072;2023-05-24T01:18:23;9.35;;;2.78;;
14235;SDS011;7202;50.718;7.072;2023-05-24T01:20:58;8.80;;;3.35;;
14235;SDS011;7202;50.718;7.072;2023-05-24T01:23:37;6.65;;;2.33;;
14235;SDS011;7202;50.718;7.072;2023-05-24T01:26:13;10.38;;;2.63;;
14235;SDS011;7202;50.718;7.072;2023-05-24T01:28:49;8.82;;;2.67;;
14235;SDS011;7202;50.718;7.072;2023-05-24T01:31:19;9.00;;;2.88;;
14235;SDS011;7202;50.718;7.072;2023-05-24T01:33:49;9.43;;;3.30;;
14235;SDS011;7202;50.718;7.072;2023-05-24T01:36:18;9.38;;;3.33;;
14235;SDS011;7202;50.718;7.072;2023-05-24T01:38:48;12.73;;;2.63;;
14235;SDS011;7202;50.718;7.072;2023-05-24T01:41:21;9.57;;;3.05;;
14235;SDS011;7202;50.718;7.072;2023-05-24T01:43:59;7.20;;;2.60;;
14235;SDS011;7202;50.718;7.072;2023-05-24T01:46:34;8.27;;;2.80;;
14235;SDS011;7202;50.718;7.072;2023-05-24T01:49:07;7.82;;;3.10;;
14235;SDS011;7202;50.718;7.072;2023-05-24T01:51:43;4.90;;;2.50;;
14235;SDS011;7202;50.718;7.072;2023-05-24T01:54:19;8.88;;;2.35;;
14235;SDS011;7202;50.718;7.072;2023-05-24T01:56:50;7.32;;;2.50;;
14235;SDS011;7202;50.718;7.072;2023-05-24T01:59:23;6.65;;;2.33;;
14235;SDS011;7202;50.718;7.072;2023-05-24T02:01:53;7.68;;;2.70;;
14235;SDS011;7202;50.718;7.072;2023-05-24T02:04:22;10.90;;;2.70;;
14235;SDS011;7202;50.718;7.072;2023-05-24T02:06:52;8.48;;;3.35;;
14235;SDS011;7202;50.718;7.072;2023-05-24T02:09:20;7.50;;;2.70;;
14235;SDS011;7202;50.718;7.072;2023-05-24T02:11:49;6.68;;;2.50;;
14235;SDS011;7202;50.718;7.072;2023-05-24T02:14:18;9.93;;;2.80;;
14235;SDS011;7202;50.718;7.072;2023-05-24T02:16:49;7.00;;;2.63;;
14235;SDS011;7202;50.718;7.072;2023-05-24T02:19:18;7.35;;;2.53;;
14235;SDS011;7202;50.718;7.072;2023-05-24T02:21:47;7.15;;;2.50;;
14235;SDS011;7202;50.718;7.072;2023-05-24T02:24:15;9.30;;;2.90;;
14235;SDS011;7202;50.718;7.072;2023-05-24T02:26:44;9.73;;;2.80;;
14235;SDS011;7202;50.718;7.072;2023-05-24T02:29:13;6.07;;;2.70;;
14235;SDS011;7202;50.718;7.072;2023-05-24T02:31:42;6.28;;;2.63;;
14235;SDS011;7202;50.718;7.072;2023-05-24T02:34:12;7.15;;;2.33;;
14235;SDS011;7202;50.718;7.072;2023-05-24T02:36:41;5.38;;;2.55;;
14235;SDS011;7202;50.718;7.072;2023-05-24T02:39:11;9.02;;;2.63;;
14235;SDS011;7202;50.718;7.072;2023-05-24T02:41:40;12.23;;;3.58;;
14235;SDS011;7202;50.718;7.072;2023-05-24T02:44:09;8.35;;;2.75;;
14235;SDS011;7202;50.718;7.072;2023-05-24T02:46:38;6.93;;;2.45;;
14235;SDS011;7202;50.718;7.072;2023-05-24T02:49:07;9.43;;;2.58;;
14235;SDS011;7202;50.718;7.072;2023-05-24T02:51:37;6.43;;;2.67;;
14235;SDS011;7202;50.718;7.072;2023-05-24T02:54:06;8.95;;;3.15;;
14235;SDS011;7202;50.718;7.072;2023-05-24T02:56:35;7.40;;;2.28;;
14235;SDS011;7202;50.718;7.072;2023-05-24T02:59:05;6.35;;;2.95;;
14235;SDS011;7202;50.718;7.072;2023-05-24T03:01:33;5.78;;;2.30;;
14235;SDS011;7202;50.718;7.072;2023-05-24T03:04:02;7.88;;;2.60;;
14235;SDS011;7202;50.718;7.072;2023-05-24T03:06:31;8.48;;;2.95;;
14235;SDS011;7202;50.718;7.072;2023-05-24T03:09:02;8.65;;;2.60;;
14235;SDS011;7202;50.718;7.072;2023-05-24T03:11:31;8.63;;;2.45;;
14235;SDS011;7202;50.718;7.072;2023-05-24T03:14:00;8.50;;;3.00;;
14235;SDS011;7202;50.718;7.072;2023-05-24T03:16:33;10.23;;;2.92;;
14235;SDS011;7202;50.718;7.072;2023-05-24T03:19:03;6.38;;;2.67;;
14235;SDS011;7202;50.718;7.072;2023-05-24T03:21:36;6.45;;;2.53;;
14235;SDS011;7202;50.718;7.072;2023-05-24T03:24:06;8.63;;;3.58;;
14235;SDS011;7202;50.718;7.072;2023-05-24T03:26:35;6.20;;;2.78;;
14235;SDS011;7202;50.718;7.072;2023-05-24T03:29:06;6.13;;;2.80;;
14235;SDS011;7202;50.718;7.072;2023-05-24T03:31:38;8.75;;;3.58;;
14235;SDS011;7202;50.718;7.072;2023-05-24T03:34:07;8.68;;;3.30;;
14235;SDS011;7202;50.718;7.072;2023-05-24T03:36:37;10.43;;;3.20;;
14235;SDS011;7202;50.718;7.072;2023-05-24T03:39:07;8.93;;;2.85;;
14235;SDS011;7202;50.718;7.072;2023-05-24T03:41:52;5.80;;;2.50;;
14235;SDS011;7202;50.718;7.072;2023-05-24T03:44:21;9.13;;;2.80;;
14235;SDS011;7202;50.718;7.072;2023-05-24T03:46:50;8.18;;;2.90;;
14235;SDS011;7202;50.718;7.072;2023-05-24T03:49:18;11.30;;;2.97;;
14235;SDS011;7202;50.718;7.072;2023-05-24T03:51:48;7.50;;;3.30;;
14235;SDS011;7202;50.718;7.072;2023-05-24T03:54:18;4.93;;;2.60;;
14235;SDS011;7202;50.718;7.072;2023-05-24T03:56:47;8.43;;;2.80;;
14235;SDS011;7202;50.718;7.072;2023-05-24T03:59:19;7.15;;;3.00;;
14235;SDS011;7202;50.718;7.072;2023-05-24T04:01:48;15.68;;;3.40;;
14235;SDS011;7202;50.718;7.072;2023-05-24T04:04:18;10.77;;;3.15;;
14235;SDS011;7202;50.718;7.072;2023-05-24T04:06:47;7.90;;;3.20;;
14235;SDS011;7202;50.718;7.072;2023-05-24T04:09:15;8.57;;;2.92;;
14235;SDS011;7202;50.718;7.072;2023-05-24T04:11:46;7.90;;;2.72;;
14235;SDS011;7202;50.718;7.072;2023-05-24T04:14:14;5.75;;;2.97;;
14235;SDS011;7202;50.718;7.072;2023-05-24T04:16:43;8.65;;;3.08;;
14235;SDS011;7202;50.718;7.072;2023-05-24T04:19:14;8.10;;;3.67;;
14235;SDS011;7202;50.718;7.072;2023-05-24T04:21:42;7.55;;;2.95;;
14235;SDS011;7202;50.718;7.072;2023-05-24T04:24:12;4.97;;;2.97;;
14235;SDS011;7202;50.718;7.072;2023-05-24T04:26:42;10.50;;;3.63;;
14235;SDS011;7202;50.718;7.072;2023-05-24T04:29:14;8.68;;;3.83;;
14235;SDS011;7202;50.718;7.072;2023-05-24T04:31:44;7.53;;;3.40;;
14235;SDS011;7202;50.718;7.072;2023-05-24T04:34:14;11.20;;;3.90;;
14235;SDS011;7202;50.718;7.072;2023-05-24T04:36:43;9.25;;;3.47;;
14235;SDS011;7202;50.718;7.072;2023-05-24T04:39:13;9.02;;;3.95;;
14235;SDS011;7202;50.718;7.072;2023-05-24T04:41:42;9.98;;;3.35;;
14235;SDS011;7202;50.718;7.072;2023-05-24T04:44:12;8.18;;;3.50;;
14235;SDS011;7202;50.718;7.072;2023-05-24T04:46:42;13.65;;;4.43;;
14235;SDS011;7202;50.718;7.072;2023-05-24T04:49:10;7.78;;;3.65;;
14235;SDS011;7202;50.718;7.072;2023-05-24T04:51:39;7.43;;;3.70;;
14235;SDS011;7202;50.718;7.072;2023-05-24T04:54:08;11.48;;;4.18;;
14235;SDS011;7202;50.718;7.072;2023-05-24T04:56:39;5.82;;;3.45;;
14235;SDS011;7202;50.718;7.072;2023-05-24T04:59:08;9.50;;;3.80;;
14235;SDS011;7202;50.718;7.072;2023-05-24T05:01:37;8.68;;;3.65;;
14235;SDS011;7202;50.718;7.072;2023-05-24T05:04:08;8.35;;;3.58;;
14235;SDS011;7202;50.718;7.072;2023-05-24T05:06:36;6.65;;;3.63;;
14235;SDS011;7202;50.718;7.072;2023-05-24T05:09:06;7.63;;;3.60;;
14235;SDS011;7202;50.718;7.072;2023-05-24T05:11:36;8.25;;;4.00;;
14235;SDS011;7202;50.718;7.072;2023-05-24T05:14:05;9.63;;;3.75;;
14235;SDS011;7202;50.718;7.072;2023-05-24T05:16:35;14.95;;;4.55;;
14235;SDS011;7202;50.718;7.072;2023-05-24T05:19:05;13.07;;;4.13;;
14235;SDS011;7202;50.718;7.072;2023-05-24T05:21:35;15.88;;;4.40;;
14235;SDS011;7202;50.718;7.072;2023-05-24T05:24:05;8.65;;;3.70;;
14235;SDS011;7202;50.718;7.072;2023-05-24T05:26:34;11.57;;;4.05;;
14235;SDS011;7202;50.718;7.072;2023-05-24T05:29:03;13.63;;;3.67;;
14235;SDS011;7202;50.718;7.072;2023-05-24T05:31:31;15.20;;;4.45;;
14235;SDS011;7202;50.718;7.072;2023-05-24T05:34:00;12.20;;;4.28;;
14235;SDS011;7202;50.718;7.072;2023-05-24T05:36:29;14.75;;;4.43;;
14235;SDS011;7202;50.718;7.072;2023-05-24T05:38:59;11.52;;;4.05;;
14235;SDS011;7202;50.718;7.072;2023-05-24T05:41:28;13.63;;;4.57;;
14235;SDS011;7202;50.718;7.072;2023-05-24T05:43:57;11.82;;;4.55;;
14235;SDS011;7202;50.718;7.072;2023-05-24T05:46:25;12.75;;;3.92;;
14235;SDS011;7202;50.718;7.072;2023-05-24T05:48:54;15.82;;;4.65;;
14235;SDS011;7202;50.718;7.072;2023-05-24T05:51:23;13.73;;;4.57;;
14235;SDS011;7202;50.718;7.072;2023-05-24T05:53:52;15.90;;;5.20;;
14235;SDS011;7202;50.718;7.072;2023-05-24T05:56:22;15.52;;;4.22;;
14235;SDS011;7202;50.718;7.072;2023-05-24T05:58:50;12.32;;;4.60;;
14235;SDS011;7202;50.718;7.072;2023-05-24T06:01:19;15.95;;;4.28;;
14235;SDS011;7202;50.718;7.072;2023-05-24T06:03:47;18.30;;;4.32;;
14235;SDS011;7202;50.718;7.072;2023-05-24T06:06:17;10.40;;;3.72;;
14235;SDS011;7202;50.718;7.072;2023-05-24T06:08:46;11.38;;;4.32;;
14235;SDS011;7202;50.718;7.072;2023-05-24T06:11:15;12.23;;;4.25;;
14235;SDS011;7202;50.718;7.072;2023-05-24T06:13:45;9.93;;;4.05;;
14235;SDS011;7202;50.718;7.072;2023-05-24T06:16:14;14.15;;;4.68;;
14235;SDS011;7202;50.718;7.072;2023-05-24T06:18:42;14.10;;;4.35;;
14235;SDS011;7202;50.718;7.072;2023-05-24T06:21:29;13.43;;;4.88;;
14235;SDS011;7202;50.718;7.072;2023-05-24T06:23:58;18.15;;;5.35;;
14235;SDS011;7202;50.718;7.072;2023-05-24T06:26:28;15.50;;;5.35;;
14235;SDS011;7202;50.718;7.072;2023-05-24T06:28:58;14.63;;;4.63;;
14235;SDS011;7202;50.718;7.072;2023-05-24T06:31:27;15.80;;;4.95;;
14235;SDS011;7202;50.718;7.072;2023-05-24T06:33:56;15.52;;;4.55;;
14235;SDS011;7202;50.718;7.072;2023-05-24T06:36:27;16.75;;;4.80;;
14235;SDS011;7202;50.718;7.072;2023-05-24T06:38:56;14.88;;;5.03;;
14235;SDS011;7202;50.718;7.072;2023-05-24T06:41:25;14.43;;;4.50;;
14235;SDS011;7202;50.718;7.072;2023-05-24T06:43:58;16.45;;;4.50;;
14235;SDS011;7202;50.718;7.072;2023-05-24T06:46:27;15.52;;;4.63;;
14235;SDS011;7202;50.718;7.072;2023-05-24T06:48:55;15.18;;;4.07;;
14235;SDS011;7202;50.718;7.072;2023-05-24T06:51:24;15.15;;;4.75;;
14235;SDS011;7202;50.718;7.072;2023-05-24T06:53:53;14.70;;;4.30;;
14235;SDS011;7202;50.718;7.072;2023-05-24T06:56:22;15.27;;;4.40;;
14235;SDS011;7202;50.718;7.072;2023-05-24T06:58:51;17.63;;;4.13;;
14235;SDS011;7202;50.718;7.072;2023-05-24T07:01:21;23.73;;;6.18;;
14235;SDS011;7202;50.718;7.072;2023-05-24T07:03:50;15.90;;;4.43;;
14235;SDS011;7202;50.718;7.072;2023-05-24T07:06:19;16.30;;;5.25;;
14235;SDS011;7202;50.718;7.072;2023-05-24T07:08:47;15.18;;;4.55;;
14235;SDS011;7202;50.718;7.072;2023-05-24T07:11:16;16.67;;;4.63;;
14235;SDS011;7202;50.718;7.072;2023-05-24T07:13:45;17.75;;;5.32;;
14235;SDS011;7202;50.718;7.072;2023-05-24T07:16:14;16.45;;;5.07;;
14235;SDS011;7202;50.718;7.072;2023-05-24T07:18:44;22.33;;;5.05;;
14235;SDS011;7202;50.718;7.072;2023-05-24T07:21:12;18.35;;;5.20;;
14235;SDS011;7202;50.718;7.072;2023-05-24T07:23:41;15.93;;;5.05;;
14235;SDS011;7202;50.718;7.072;2023-05-24T07:26:10;15.88;;;4.82;;
14235;SDS011;7202;50.718;7.072;2023-05-24T07:28:38;14.88;;;5.43;;
14235;SDS011;7202;50.718;7.072;2023-05-24T07:31:07;16.25;;;5.13;;
14235;SDS011;7202;50.718;7.072;2023-05-24T07:33:36;11.73;;;4.50;;
14235;SDS011;7202;50.718;7.072;2023-05-24T07:36:06;12.95;;;4.65;;
14235;SDS011;7202;50.718;7.072;2023-05-24T07:38:35;18.67;;;5.40;;
14235;SDS011;7202;50.718;7.072;2023-05-24T07:41:05;13.32;;;4.28;;
14235;SDS011;7202;50.718;7.072;2023-05-24T07:43:34;12.15;;;4.43;;
14235;SDS011;7202;50.718;7.072;2023-05-24T07:46:05;14.45;;;4.85;;
14235;SDS011;7202;50.718;7.072;2023-05-24T07:48:36;13.93;;;4.65;;
14235;SDS011;7202;50.718;7.072;2023-05-24T07:51:04;14.60;;;3.92;;
14235;SDS011;7202;50.718;7.072;2023-05-24T07:53:34;14.05;;;4.93;;
14235;SDS011;7202;50.718;7.072;2023-05-24T07:56:03;12.98;;;4.68;;
14235;SDS011;7202;50.718;7.072;2023-05-24T07:58:33;12.98;;;3.53;;
14235;SDS011;7202;50.718;7.072;2023-05-24T08:01:02;12.90;;;4.18;;
14235;SDS011;7202;50.718;7.072;2023-05-24T08:03:33;19.25;;;5.22;;
14235;SDS011;7202;50.718;7.072;2023-05-24T08:06:03;11.85;;;4.28;;
14235;SDS011;7202;50.718;7.072;2023-05-24T08:08:33;11.30;;;3.78;;
14235;SDS011;7202;50.718;7.072;2023-05-24T08:11:02;12.80;;;4.47;;
14235;SDS011;7202;50.718;7.072;2023-05-24T08:13:30;11.32;;;3.50;;
14235;SDS011;7202;50.718;7.072;2023-05-24T08:15:59;9.35;;;3.47;;
14235;SDS011;7202;50.718;7.072;2023-05-24T08:18:28;10.93;;;3.25;;
14235;SDS011;7202;50.718;7.072;2023-05-24T08:20:56;12.70;;;3.92;;
14235;SDS011;7202;50.718;7.072;2023-05-24T08:23:25;12.30;;;4.18;;
14235;SDS011;7202;50.718;7.072;2023-05-24T08:25:57;12.32;;;4.13;;
14235;SDS011;7202;50.718;7.072;2023-05-24T08:28:25;14.85;;;3.92;;
14235;SDS011;7202;50.718;7.072;2023-05-24T08:30:55;10.38;;;4.03;;
14235;SDS011;7202;50.718;7.072;2023-05-24T08:33:24;14.10;;;4.55;;
14235;SDS011;7202;50.718;7.072;2023-05-24T08:35:53;15.63;;;4.78;;
14235;SDS011;7202;50.718;7.072;2023-05-24T08:38:22;12.77;;;3.90;;
14235;SDS011;7202;50.718;7.072;2023-05-24T08:40:51;15.38;;;4.60;;
14235;SDS011;7202;50.718;7.072;2023-05-24T08:43:21;12.43;;;4.13;;
14235;SDS011;7202;50.718;7.072;2023-05-24T08:45:50;12.93;;;3.72;;
14235;SDS011;7202;50.718;7.072;2023-05-24T08:48:20;8.57;;;3.72;;
14235;SDS011;7202;50.718;7.072;2023-05-24T08:50:50;9.52;;;3.65;;
14235;SDS011;7202;50.718;7.072;2023-05-24T08:53:20;11.30;;;3.83;;
14235;SDS011;7202;50.718;7.072;2023-05-24T08:55:49;9.85;;;3.60;;
14235;SDS011;7202;50.718;7.072;2023-05-24T08:58:23;11.70;;;3.70;;
14235;SDS011;7202;50.718;7.072;2023-05-24T09:00:51;12.43;;;4.20;;
14235;SDS011;7202;50.718;7.072;2023-05-24T09:03:20;8.50;;;3.53;;
14235;SDS011;7202;50.718;7.072;2023-05-24T09:05:50;15.30;;;4.05;;
14235;SDS011;7202;50.718;7.072;2023-05-24T09:08:20;9.73;;;3.38;;
14235;SDS011;7202;50.718;7.072;2023-05-24T09:10:49;13.88;;;3.63;;
14235;SDS011;7202;50.718;7.072;2023-05-24T09:13:22;10.73;;;3.95;;
14235;SDS011;7202;50.718;7.072;2023-05-24T09:15:51;9.15;;;3.45;;
14235;SDS011;7202;50.718;7.072;2023-05-24T09:18:20;12.25;;;4.45;;
14235;SDS011;7202;50.718;7.072;2023-05-24T09:20:49;10.50;;;3.78;;
14235;SDS011;7202;50.718;7.072;2023-05-24T09:23:19;8.80;;;3.50;;
14235;SDS011;7202;50.718;7.072;2023-05-24T09:25:49;12.38;;;4.30;;
14235;SDS011;7202;50.718;7.072;2023-05-24T09:28:18;10.57;;;3.55;;
14235;SDS011;7202;50.718;7.072;2023-05-24T09:30:57;11.80;;;4.15;;
14235;SDS011;7202;50.718;7.072;2023-05-24T09:33:33;7.60;;;3.35;;
14235;SDS011;7202;50.718;7.072;2023-05-24T09:36:03;9.90;;;3.55;;
14235;SDS011;7202;50.718;7.072;2023-05-24T09:38:33;11.52;;;4.13;;
14235;SDS011;7202;50.718;7.072;2023-05-24T09:41:03;7.60;;;3.55;;
14235;SDS011;7202;50.718;7.072;2023-05-24T09:43:33;8.30;;;3.83;;
14235;SDS011;7202;50.718;7.072;2023-05-24T09:46:16;11.88;;;3.88;;
14235;SDS011;7202;50.718;7.072;2023-05-24T09:48:55;11.23;;;4.32;;
14235;SDS011;7202;50.718;7.072;2023-05-24T09:51:24;10.25;;;4.30;;
14235;SDS011;7202;50.718;7.072;2023-05-24T09:53:55;14.18;;;4.85;;
14235;SDS011;7202;50.718;7.072;2023-05-24T09:56:25;11.20;;;4.20;;
14235;SDS011;7202;50.718;7.072;2023-05-24T09:58:54;12.23;;;4.38;;
14235;SDS011;7202;50.718;7.072;2023-05-24T10:01:25;9.23;;;3.78;;
14235;SDS011;7202;50.718;7.072;2023-05-24T10:03:55;13.20;;;3.97;;
14235;SDS011;7202;50.718;7.072;2023-05-24T10:06:25;9.93;;;3.65;;
14235;SDS011;7202;50.718;7.072;2023-05-24T10:08:57;9.90;;;4.22;;
14235;SDS011;7202;50.718;7.072;2023-05-24T10:11:26;9.93;;;4.13;;
14235;SDS011;7202;50.718;7.072;2023-05-24T10:13:55;11.13;;;4.57;;
14235;SDS011;7202;50.718;7.072;2023-05-24T10:16:27;9.90;;;3.67;;
14235;SDS011;7202;50.718;7.072;2023-05-24T10:18:55;12.65;;;4.05;;
14235;SDS011;7202;50.718;7.072;2023-05-24T10:21:24;12.93;;;4.45;;
14235;SDS011;7202;50.718;7.072;2023-05-24T10:23:56;11.73;;;3.70;;
14235;SDS011;7202;50.718;7.072;2023-05-24T10:26:30;8.50;;;4.28;;
14235;SDS011;7202;50.718;7.072;2023-05-24T10:29:00;14.90;;;4.82;;
14235;SDS011;7202;50.718;7.072;2023-05-24T10:31:36;8.98;;;3.92;;
14235;SDS011;7202;50.718;7.072;2023-05-24T10:34:07;11.35;;;4.75;;
14235;SDS011;7202;50.718;7.072;2023-05-24T10:36:37;18.35;;;5.22;;
14235;SDS011;7202;50.718;7.072;2023-05-24T10:39:07;12.27;;;4.82;;
14235;SDS011;7202;50.718;7.072;2023-05-24T10:41:38;12.80;;;4.97;;
14235;SDS011;7202;50.718;7.072;2023-05-24T10:44:11;14.05;;;4.70;;
14235;SDS011;7202;50.718;7.072;2023-05-24T10:49:30;16.48;;;5.22;;
14235;SDS011;7202;50.718;7.072;2023-05-24T10:51:59;9.10;;;4.57;;
14235;SDS011;7202;50.718;7.072;2023-05-24T10:54:29;15.48;;;5.68;;
14235;SDS011;7202;50.718;7.072;2023-05-24T10:56:59;12.65;;;5.88;;
14235;SDS011;7202;50.718;7.072;2023-05-24T10:59:31;12.60;;;6.50;;
14235;SDS011;7202;50.718;7.072;2023-05-24T11:02:05;15.70;;;5.88;;
14235;SDS011;7202;50.718;7.072;2023-05-24T11:04:40;14.27;;;6.45;;
14235;SDS011;7202;50.718;7.072;2023-05-24T11:07:11;13.98;;;5.30;;
14235;SDS011;7202;50.718;7.072;2023-05-24T11:09:41;14.23;;;5.00;;
14235;SDS011;7202;50.718;7.072;2023-05-24T11:12:13;12.95;;;5.18;;
14235;SDS011;7202;50.718;7.072;2023-05-24T11:14:45;13.43;;;4.90;;
14235;SDS011;7202;50.718;7.072;2023-05-24T11:17:17;12.45;;;5.57;;
14235;SDS011;7202;50.718;7.072;2023-05-24T11:19:48;16.38;;;7.88;;
14235;SDS011;7202;50.718;7.072;2023-05-24T11:22:19;16.48;;;9.50;;
14235;SDS011;7202;50.718;7.072;2023-05-24T11:24:50;17.85;;;9.55;;
14235;SDS011;7202;50.718;7.072;2023-05-24T11:27:19;12.73;;;7.97;;
14235;SDS011;7202;50.718;7.072;2023-05-24T11:29:48;16.85;;;9.02;;
14235;SDS011;7202;50.718;7.072;2023-05-24T11:32:19;16.35;;;9.65;;
14235;SDS011;7202;50.718;7.072;2023-05-24T11:34:50;25.70;;;9.32;;
14235;SDS011;7202;50.718;7.072;2023-05-24T11:37:18;17.90;;;7.53;;
14235;SDS011;7202;50.718;7.072;2023-05-24T11:40:01;13.88;;;8.13;;
14235;SDS011;7202;50.718;7.072;2023-05-24T11:42:32;19.20;;;7.82;;
14235;SDS011;7202;50.718;7.072;2023-05-24T11:45:01;16.98;;;8.05;;
14235;SDS011;7202;50.718;7.072;2023-05-24T11:47:33;16.45;;;8.23;;
14235;SDS011;7202;50.718;7.072;2023-05-24T11:50:03;13.48;;;7.82;;
14235;SDS011;7202;50.718;7.072;2023-05-24T11:52:37;13.68;;;8.13;;
14235;SDS011;7202;50.718;7.072;2023-05-24T11:55:10;16.13;;;8.68;;
14235;SDS011;7202;50.718;7.072;2023-05-24T11:57:44;18.17;;;9.00;;
14235;SDS011;7202;50.718;7.072;2023-05-24T12:00:22;12.40;;;8.93;;
14235;SDS011;7202;50.718;7.072;2023-05-24T12:02:54;19.50;;;10.15;;
14235;SDS011;7202;50.718;7.072;2023-05-24T12:05:23;17.20;;;10.82;;
14235;SDS011;7202;50.718;7.072;2023-05-24T12:07:59;15.80;;;10.57;;
14235;SDS011;7202;50.718;7.072;2023-05-24T12:10:31;15.60;;;9.25;;
14235;SDS011;7202;50.718;7.072;2023-05-24T12:13:01;15.60;;;9.70;;
14235;SDS011;7202;50.718;7.072;2023-05-24T12:15:30;15.73;;;9.10;;
14235;SDS011;7202;50.718;7.072;2023-05-24T12:18:01;15.98;;;7.60;;
14235;SDS011;7202;50.718;7.072;2023-05-24T12:20:30;15.68;;;7.03;;
14235;SDS011;7202;50.718;7.072;2023-05-24T12:22:59;13.25;;;7.07;;
14235;SDS011;7202;50.718;7.072;2023-05-24T12:25:28;9.88;;;6.13;;
14235;SDS011;7202;50.718;7.072;2023-05-24T12:27:56;18.75;;;7.38;;
14235;SDS011;7202;50.718;7.072;2023-05-24T12:30:25;18.52;;;8.50;;
14235;SDS011;7202;50.718;7.072;2023-05-24T12:32:54;16.73;;;8.88;;
14235;SDS011;7202;50.718;7.072;2023-05-24T12:35:24;18.02;;;8.48;;
14235;SDS011;7202;50.718;7.072;2023-05-24T12:37:57;14.68;;;8.55;;
14235;SDS011;7202;50.718;7.072;2023-05-24T12:40:26;14.00;;;7.47;;
14235;SDS011;7202;50.718;7.072;2023-05-24T12:42:59;13.90;;;8.27;;
14235;SDS011;7202;50.718;7.072;2023-05-24T12:45:29;13.35;;;8.10;;
14235;SDS011;7202;50.718;7.072;2023-05-24T12:47:58;16.80;;;8.15;;
14235;SDS011;7202;50.718;7.072;2023-05-24T12:50:30;17.85;;;7.88;;
14235;SDS011;7202;50.718;7.072;2023-05-24T12:53:00;14.52;;;7.75;;
14235;SDS011;7202;50.718;7.072;2023-05-24T12:55:29;12.00;;;7.32;;
14235;SDS011;7202;50.718;7.072;2023-05-24T12:57:58;12.48;;;6.82;;
14235;SDS011;7202;50.718;7.072;2023-05-24T13:00:29;14.05;;;6.75;;
14235;SDS011;7202;50.718;7.072;2023-05-24T13:02:57;13.13;;;5.75;;
14235;SDS011;7202;50.718;7.072;2023-05-24T13:05:27;12.10;;;5.47;;
14235;SDS011;7202;50.718;7.072;2023-05-24T13:07:58;12.00;;;5.50;;
14235;SDS011;7202;50.718;7.072;2023-05-24T13:10:26;12.05;;;5.55;;
14235;SDS011;7202;50.718;7.072;2023-05-24T13:12:55;11.52;;;5.40;;
14235;SDS011;7202;50.718;7.072;2023-05-24T13:15:24;12.77;;;5.50;;
14235;SDS011;7202;50.718;7.072;2023-05-24T13:17:53;10.65;;;4.85;;
14235;SDS011;7202;50.718;7.072;2023-05-24T13:20:22;11.38;;;4.40;;
14235;SDS011;7202;50.718;7.072;2023-05-24T13:22:51;15.80;;;5.18;;
14235;SDS011;7202;50.718;7.072;2023-05-24T13:25:21;10.88;;;4.80;;
14235;SDS011;7202;50.718;7.072;2023-05-24T13:27:49;11.07;;;4.47;;
14235;SDS011;7202;50.718;7.072;2023-05-24T13:30:20;10.52;;;4.15;;
14235;SDS011;7202;50.718;7.072;2023-05-24T13:32:53;10.68;;;4.32;;
14235;SDS011;7202;50.718;7.072;2023-05-24T13:35:24;7.90;;;4.00;;
14235;SDS011;7202;50.718;7.072;2023-05-24T13:37:53;9.15;;;4.07;;
14235;SDS011;7202;50.718;7.072;2023-05-24T13:40:25;8.82;;;4.38;;
14235;SDS011;7202;50.718;7.072;2023-05-24T13:42:55;11.20;;;4.35;;
14235;SDS011;7202;50.718;7.072;2023-05-24T13:45:24;13.05;;;4.65;;
14235;SDS011;7202;50.718;7.072;2023-05-24T13:47:52;9.15;;;4.50;;
14235;SDS011;7202;50.718;7.072;2023-05-24T13:50:29;22.42;;;4.50;;
14235;SDS011;7202;50.718;7.072;2023-05-24T13:52:58;12.40;;;4.85;;
14235;SDS011;7202;50.718;7.072;2023-05-24T13:55:30;7.63;;;4.35;;
14235;SDS011;7202;50.718;7.072;2023-05-24T13:58:00;12.52;;;4.45;;
14235;SDS011;7202;50.718;7.072;2023-05-24T14:00:30;9.35;;;4.07;;
14235;SDS011;7202;50.718;7.072;2023-05-24T14:03:01;9.80;;;4.10;;
14235;SDS011;7202;50.718;7.072;2023-05-24T14:05:32;19.30;;;5.88;;
14235;SDS011;7202;50.718;7.072;2023-05-24T14:08:01;9.80;;;4.05;;
14235;SDS011;7202;50.718;7.072;2023-05-24T14:10:34;9.82;;;4.20;;
14235;SDS011;7202;50.718;7.072;2023-05-24T14:13:05;9.77;;;4.30;;
14235;SDS011;7202;50.718;7.072;2023-05-24T14:15:37;12.68;;;4.68;;
14235;SDS011;7202;50.718;7.072;2023-05-24T14:18:06;10.27;;;4.68;;
14235;SDS011;7202;50.718;7.072;2023-05-24T14:20:36;11.05;;;4.30;;
14235;SDS011;7202;50.718;7.072;2023-05-24T14:23:06;11.55;;;4.10;;
14235;SDS011;7202;50.718;7.072;2023-05-24T14:25:37;11.85;;;4.43;;
14235;SDS011;7202;50.718;7.072;2023-05-24T14:28:07;14.10;;;4.32;;
14235;SDS011;7202;50.718;7.072;2023-05-24T14:30:36;8.45;;;3.88;;
14235;SDS011;7202;50.718;7.072;2023-05-24T14:33:05;7.93;;;3.90;;
14235;SDS011;7202;50.718;7.072;2023-05-24T14:35:34;11.25;;;4.47;;
14235;SDS011;7202;50.718;7.072;2023-05-24T14:38:06;11.65;;;4.57;;
14235;SDS011;7202;50.718;7.072;2023-05-24T14:40:36;10.52;;;4.20;;
14235;SDS011;7202;50.718;7.072;2023-05-24T14:43:07;9.27;;;3.83;;
14235;SDS011;7202;50.718;7.072;2023-05-24T14:45:36;12.48;;;4.40;;
14235;SDS011;7202;50.718;7.072;2023-05-24T14:48:07;9.73;;;4.15;;
14235;SDS011;7202;50.718;7.072;2023-05-24T14:50:38;8.43;;;3.97;;
14235;SDS011;7202;50.718;7.072;2023-05-24T14:53:08;12.38;;;3.70;;
14235;SDS011;7202;50.718;7.072;2023-05-24T14:55:40;13.32;;;4.00;;
14235;SDS011;7202;50.718;7.072;2023-05-24T14:58:10;13.63;;;4.50;;
14235;SDS011;7202;50.718;7.072;2023-05-24T15:00:39;11.65;;;4.10;;
14235;SDS011;7202;50.718;7.072;2023-05-24T15:03:09;11.15;;;4.30;;
14235;SDS011;7202;50.718;7.072;2023-05-24T15:05:40;11.52;;;3.90;;
14235;SDS011;7202;50.718;7.072;2023-05-24T15:08:09;11.32;;;4.60;;
14235;SDS011;7202;50.718;7.072;2023-05-24T15:10:40;10.18;;;3.90;;
14235;SDS011;7202;50.718;7.072;2023-05-24T15:13:11;11.73;;;4.32;;